sensor_id;sensor_type;location;lat;lon;timestamp;temperature;humidity
11229;DHT22;5671;47.936;8.716;2023-05-10T00:01:27;11.40;86.90
11229;DHT22;5671;47.936;8.716;2023-05-10T00:03:55;11.30;87.10
11229;DHT22;5671;47.936;8.716;2023-05-10T00:06:22;11.30;87.10
11229;DHT22;5671;47.936;8.716;2023-05-10T00:08:48;11.30;86.80
11229;DHT22;5671;47.936;8.716;2023-05-10T00:11:15;11.20;86.70
11229;DHT22;5671;47.936;8.716;2023-05-10T00:13:42;11.20;87.20
11229;DHT22;5671;47.936;8.716;2023-05-10T00:16:09;11.10;87.40
11229;DHT22;5671;47.936;8.716;2023-05-10T00:18:37;11.10;87.50
11229;DHT22;5671;47.936;8.716;2023-05-10T00:21:06;11.10;87.90
11229;DHT22;5671;47.936;8.716;2023-05-10T00:23:33;11.10;87.90
11229;DHT22;5671;47.936;8.716;2023-05-10T00:25:59;11.10;87.80
11229;DHT22;5671;47.936;8.716;2023-05-10T00:28:27;11.10;87.70
11229;DHT22;5671;47.936;8.716;2023-05-10T00:30:54;11.00;87.90
11229;DHT22;5671;47.936;8.716;2023-05-10T00:33:21;11.00;87.80
11229;DHT22;5671;47.936;8.716;2023-05-10T00:35:48;11.00;87.80
11229;DHT22;5671;47.936;8.716;2023-05-10T00:38:17;11.00;87.70
11229;DHT22;5671;47.936;8.716;2023-05-10T00:40:43;11.00;87.90
11229;DHT22;5671;47.936;8.716;2023-05-10T00:43:10;11.00;87.90
11229;DHT22;5671;47.936;8.716;2023-05-10T00:45:37;10.90;87.70
11229;DHT22;5671;47.936;8.716;2023-05-10T00:48:06;10.90;87.60
11229;DHT22;5671;47.936;8.716;2023-05-10T00:50:34;10.90;87.70
11229;DHT22;5671;47.936;8.716;2023-05-10T00:53:01;10.90;87.50
11229;DHT22;5671;47.936;8.716;2023-05-10T00:55:30;10.90;87.70
11229;DHT22;5671;47.936;8.716;2023-05-10T00:57:57;10.90;87.80
11229;DHT22;5671;47.936;8.716;2023-05-10T01:00:24;10.90;87.80
11229;DHT22;5671;47.936;8.716;2023-05-10T01:02:53;10.90;87.90
11229;DHT22;5671;47.936;8.716;2023-05-10T01:05:20;10.90;87.70
11229;DHT22;5671;47.936;8.716;2023-05-10T01:07:46;10.80;87.80
11229;DHT22;5671;47.936;8.716;2023-05-10T01:10:14;10.80;87.30
11229;DHT22;5671;47.936;8.716;2023-05-10T01:12:45;10.80;87.00
11229;DHT22;5671;47.936;8.716;2023-05-10T01:15:13;10.80;87.80
11229;DHT22;5671;47.936;8.716;2023-05-10T01:17:42;10.80;87.30
11229;DHT22;5671;47.936;8.716;2023-05-10T01:20:11;10.80;87.00
11229;DHT22;5671;47.936;8.716;2023-05-10T01:22:56;10.80;87.40
11229;DHT22;5671;47.936;8.716;2023-05-10T01:25:39;10.80;87.50
11229;DHT22;5671;47.936;8.716;2023-05-10T01:28:41;10.80;87.80
11229;DHT22;5671;47.936;8.716;2023-05-10T01:31:22;10.70;88.10
11229;DHT22;5671;47.936;8.716;2023-05-10T01:33:59;10.70;87.90
11229;DHT22;5671;47.936;8.716;2023-05-10T01:36:31;10.70;87.70
11229;DHT22;5671;47.936;8.716;2023-05-10T01:39:02;10.70;87.90
11229;DHT22;5671;47.936;8.716;2023-05-10T01:41:40;10.70;87.80
11229;DHT22;5671;47.936;8.716;2023-05-10T01:44:14;10.70;87.90
11229;DHT22;5671;47.936;8.716;2023-05-10T01:46:43;10.60;87.50
11229;DHT22;5671;47.936;8.716;2023-05-10T01:49:24;10.60;87.90
11229;DHT22;5671;47.936;8.716;2023-05-10T01:51:53;10.60;87.90
11229;DHT22;5671;47.936;8.716;2023-05-10T01:54:22;10.60;88.40
11229;DHT22;5671;47.936;8.716;2023-05-10T01:56:56;10.60;88.20
11229;DHT22;5671;47.936;8.716;2023-05-10T01:59:28;10.60;88.60
11229;DHT22;5671;47.936;8.716;2023-05-10T02:01:57;10.50;88.20
11229;DHT22;5671;47.936;8.716;2023-05-10T02:04:27;10.50;87.60
11229;DHT22;5671;47.936;8.716;2023-05-10T02:06:55;10.50;88.10
11229;DHT22;5671;47.936;8.716;2023-05-10T02:09:23;10.50;88.10
11229;DHT22;5671;47.936;8.716;2023-05-10T02:11:52;10.40;88.30
11229;DHT22;5671;47.936;8.716;2023-05-10T02:14:21;10.40;88.20
11229;DHT22;5671;47.936;8.716;2023-05-10T02:16:50;10.40;88.30
11229;DHT22;5671;47.936;8.716;2023-05-10T02:19:20;10.40;88.20
11229;DHT22;5671;47.936;8.716;2023-05-10T02:21:51;10.40;88.10
11229;DHT22;5671;47.936;8.716;2023-05-10T02:24:18;10.50;87.90
11229;DHT22;5671;47.936;8.716;2023-05-10T02:26:47;10.40;88.30
11229;DHT22;5671;47.936;8.716;2023-05-10T02:29:16;10.40;88.00
11229;DHT22;5671;47.936;8.716;2023-05-10T02:31:44;10.40;88.10
11229;DHT22;5671;47.936;8.716;2023-05-10T02:34:12;10.40;88.10
11229;DHT22;5671;47.936;8.716;2023-05-10T02:36:40;10.40;87.90
11229;DHT22;5671;47.936;8.716;2023-05-10T02:39:09;10.40;87.80
11229;DHT22;5671;47.936;8.716;2023-05-10T02:41:39;10.40;88.00
11229;DHT22;5671;47.936;8.716;2023-05-10T02:44:07;10.40;88.40
11229;DHT22;5671;47.936;8.716;2023-05-10T02:46:35;10.30;88.30
11229;DHT22;5671;47.936;8.716;2023-05-10T02:49:03;10.40;88.20
11229;DHT22;5671;47.936;8.716;2023-05-10T02:51:32;10.30;88.10
11229;DHT22;5671;47.936;8.716;2023-05-10T02:54:11;10.40;88.10
11229;DHT22;5671;47.936;8.716;2023-05-10T02:56:44;10.40;87.70
11229;DHT22;5671;47.936;8.716;2023-05-10T02:59:13;10.40;87.70
11229;DHT22;5671;47.936;8.716;2023-05-10T03:01:40;10.40;87.80
11229;DHT22;5671;47.936;8.716;2023-05-10T03:04:07;10.30;88.20
11229;DHT22;5671;47.936;8.716;2023-05-10T03:06:34;10.40;88.20
11229;DHT22;5671;47.936;8.716;2023-05-10T03:09:02;10.30;87.90
11229;DHT22;5671;47.936;8.716;2023-05-10T03:11:43;10.30;87.80
11229;DHT22;5671;47.936;8.716;2023-05-10T03:14:23;10.30;87.60
11229;DHT22;5671;47.936;8.716;2023-05-10T03:16:57;10.30;87.90
11229;DHT22;5671;47.936;8.716;2023-05-10T03:19:32;10.30;87.90
11229;DHT22;5671;47.936;8.716;2023-05-10T03:22:04;10.30;87.70
11229;DHT22;5671;47.936;8.716;2023-05-10T03:24:34;10.30;87.80
11229;DHT22;5671;47.936;8.716;2023-05-10T03:27:03;10.30;87.70
11229;DHT22;5671;47.936;8.716;2023-05-10T03:29:31;10.30;87.60
11229;DHT22;5671;47.936;8.716;2023-05-10T03:31:59;10.30;87.60
11229;DHT22;5671;47.936;8.716;2023-05-10T03:34:26;10.30;87.60
11229;DHT22;5671;47.936;8.716;2023-05-10T03:36:53;10.30;87.60
11229;DHT22;5671;47.936;8.716;2023-05-10T03:39:20;10.30;87.90
11229;DHT22;5671;47.936;8.716;2023-05-10T03:41:47;10.30;87.80
11229;DHT22;5671;47.936;8.716;2023-05-10T03:44:15;10.30;88.80
11229;DHT22;5671;47.936;8.716;2023-05-10T03:46:42;10.20;88.50
11229;DHT22;5671;47.936;8.716;2023-05-10T03:49:09;10.20;88.60
11229;DHT22;5671;47.936;8.716;2023-05-10T03:51:35;10.20;88.50
11229;DHT22;5671;47.936;8.716;2023-05-10T03:54:02;10.20;88.30
11229;DHT22;5671;47.936;8.716;2023-05-10T03:56:29;10.20;88.00
11229;DHT22;5671;47.936;8.716;2023-05-10T03:58:56;10.20;88.00
11229;DHT22;5671;47.936;8.716;2023-05-10T04:01:24;10.20;88.00
11229;DHT22;5671;47.936;8.716;2023-05-10T04:03:51;10.10;87.90
11229;DHT22;5671;47.936;8.716;2023-05-10T04:06:18;10.10;88.00
11229;DHT22;5671;47.936;8.716;2023-05-10T04:08:45;10.10;88.10
11229;DHT22;5671;47.936;8.716;2023-05-10T04:11:12;10.10;87.70
11229;DHT22;5671;47.936;8.716;2023-05-10T04:13:39;10.10;87.60
11229;DHT22;5671;47.936;8.716;2023-05-10T04:16:06;10.10;87.60
11229;DHT22;5671;47.936;8.716;2023-05-10T04:18:35;10.10;87.30
11229;DHT22;5671;47.936;8.716;2023-05-10T04:21:01;10.10;87.00
11229;DHT22;5671;47.936;8.716;2023-05-10T04:23:28;10.10;87.30
11229;DHT22;5671;47.936;8.716;2023-05-10T04:25:59;10.10;87.20
11229;DHT22;5671;47.936;8.716;2023-05-10T04:28:27;10.00;87.10
11229;DHT22;5671;47.936;8.716;2023-05-10T04:31:00;10.00;87.20
11229;DHT22;5671;47.936;8.716;2023-05-10T04:33:27;10.00;87.70
11229;DHT22;5671;47.936;8.716;2023-05-10T04:35:56;10.00;87.70
11229;DHT22;5671;47.936;8.716;2023-05-10T04:38:23;10.00;87.40
11229;DHT22;5671;47.936;8.716;2023-05-10T04:40:50;10.00;87.20
11229;DHT22;5671;47.936;8.716;2023-05-10T04:43:16;10.00;87.60
11229;DHT22;5671;47.936;8.716;2023-05-10T04:45:43;10.00;87.70
11229;DHT22;5671;47.936;8.716;2023-05-10T04:48:10;10.00;88.00
11229;DHT22;5671;47.936;8.716;2023-05-10T04:50:38;10.00;88.00
11229;DHT22;5671;47.936;8.716;2023-05-10T04:53:06;10.00;88.10
11229;DHT22;5671;47.936;8.716;2023-05-10T04:55:33;10.00;88.10
11229;DHT22;5671;47.936;8.716;2023-05-10T04:58:00;10.00;88.00
11229;DHT22;5671;47.936;8.716;2023-05-10T05:00:28;10.10;88.30
11229;DHT22;5671;47.936;8.716;2023-05-10T05:02:55;10.10;88.40
11229;DHT22;5671;47.936;8.716;2023-05-10T05:05:22;10.10;88.30
11229;DHT22;5671;47.936;8.716;2023-05-10T05:07:48;10.10;88.70
11229;DHT22;5671;47.936;8.716;2023-05-10T05:10:17;10.10;88.70
11229;DHT22;5671;47.936;8.716;2023-05-10T05:12:44;10.10;89.10
11229;DHT22;5671;47.936;8.716;2023-05-10T05:15:11;10.10;88.60
11229;DHT22;5671;47.936;8.716;2023-05-10T05:17:38;10.10;88.80
11229;DHT22;5671;47.936;8.716;2023-05-10T05:20:06;10.20;88.80
11229;DHT22;5671;47.936;8.716;2023-05-10T05:22:33;10.20;88.90
11229;DHT22;5671;47.936;8.716;2023-05-10T05:25:00;10.20;88.70
11229;DHT22;5671;47.936;8.716;2023-05-10T05:27:29;10.20;88.60
11229;DHT22;5671;47.936;8.716;2023-05-10T05:29:56;10.20;88.30
11229;DHT22;5671;47.936;8.716;2023-05-10T05:32:23;10.30;88.70
11229;DHT22;5671;47.936;8.716;2023-05-10T05:34:51;10.20;89.00
11229;DHT22;5671;47.936;8.716;2023-05-10T05:37:19;10.30;89.40
11229;DHT22;5671;47.936;8.716;2023-05-10T05:39:46;10.30;89.20
11229;DHT22;5671;47.936;8.716;2023-05-10T05:42:13;10.30;89.40
11229;DHT22;5671;47.936;8.716;2023-05-10T05:44:43;10.30;89.10
11229;DHT22;5671;47.936;8.716;2023-05-10T05:47:10;10.40;89.20
11229;DHT22;5671;47.936;8.716;2023-05-10T05:49:37;10.40;89.60
11229;DHT22;5671;47.936;8.716;2023-05-10T05:52:04;10.40;89.50
11229;DHT22;5671;47.936;8.716;2023-05-10T05:54:31;10.40;89.20
11229;DHT22;5671;47.936;8.716;2023-05-10T05:56:59;10.40;89.40
11229;DHT22;5671;47.936;8.716;2023-05-10T05:59:26;10.40;89.40
11229;DHT22;5671;47.936;8.716;2023-05-10T06:01:54;10.40;89.30
11229;DHT22;5671;47.936;8.716;2023-05-10T06:04:21;10.40;89.10
11229;DHT22;5671;47.936;8.716;2023-05-10T06:06:48;10.50;89.30
11229;DHT22;5671;47.936;8.716;2023-05-10T06:09:15;10.50;89.00
11229;DHT22;5671;47.936;8.716;2023-05-10T06:11:42;10.50;89.20
11229;DHT22;5671;47.936;8.716;2023-05-10T06:14:08;10.50;89.10
11229;DHT22;5671;47.936;8.716;2023-05-10T06:16:35;10.50;89.00
11229;DHT22;5671;47.936;8.716;2023-05-10T06:19:04;10.50;88.70
11229;DHT22;5671;47.936;8.716;2023-05-10T06:21:31;10.60;88.70
11229;DHT22;5671;47.936;8.716;2023-05-10T06:23:58;10.60;88.70
11229;DHT22;5671;47.936;8.716;2023-05-10T06:26:24;10.70;89.10
11229;DHT22;5671;47.936;8.716;2023-05-10T06:28:51;10.70;88.40
11229;DHT22;5671;47.936;8.716;2023-05-10T06:31:18;10.70;88.90
11229;DHT22;5671;47.936;8.716;2023-05-10T06:33:45;10.70;88.00
11229;DHT22;5671;47.936;8.716;2023-05-10T06:36:13;10.70;87.80
11229;DHT22;5671;47.936;8.716;2023-05-10T06:38:40;10.80;87.60
11229;DHT22;5671;47.936;8.716;2023-05-10T06:41:07;10.80;88.00
11229;DHT22;5671;47.936;8.716;2023-05-10T06:43:34;10.80;87.40
11229;DHT22;5671;47.936;8.716;2023-05-10T06:46:02;10.90;88.00
11229;DHT22;5671;47.936;8.716;2023-05-10T06:48:29;10.90;87.30
11229;DHT22;5671;47.936;8.716;2023-05-10T06:50:56;10.90;86.50
11229;DHT22;5671;47.936;8.716;2023-05-10T06:53:24;11.00;87.30
11229;DHT22;5671;47.936;8.716;2023-05-10T06:55:51;11.00;86.30
11229;DHT22;5671;47.936;8.716;2023-05-10T06:58:18;11.10;86.10
11229;DHT22;5671;47.936;8.716;2023-05-10T07:00:45;11.20;86.70
11229;DHT22;5671;47.936;8.716;2023-05-10T07:03:12;11.20;86.40
11229;DHT22;5671;47.936;8.716;2023-05-10T07:05:39;11.30;85.70
11229;DHT22;5671;47.936;8.716;2023-05-10T07:08:06;11.30;85.30
11229;DHT22;5671;47.936;8.716;2023-05-10T07:10:35;11.40;85.00
11229;DHT22;5671;47.936;8.716;2023-05-10T07:13:02;11.40;85.40
11229;DHT22;5671;47.936;8.716;2023-05-10T07:15:29;11.50;83.70
11229;DHT22;5671;47.936;8.716;2023-05-10T07:17:55;11.50;83.10
11229;DHT22;5671;47.936;8.716;2023-05-10T07:20:22;11.60;83.70
11229;DHT22;5671;47.936;8.716;2023-05-10T07:22:49;11.60;83.00
11229;DHT22;5671;47.936;8.716;2023-05-10T07:25:16;11.70;82.70
11229;DHT22;5671;47.936;8.716;2023-05-10T07:27:44;11.70;82.80
11229;DHT22;5671;47.936;8.716;2023-05-10T07:30:12;11.70;83.50
11229;DHT22;5671;47.936;8.716;2023-05-10T07:32:39;11.70;83.30
11229;DHT22;5671;47.936;8.716;2023-05-10T07:35:08;11.80;81.70
11229;DHT22;5671;47.936;8.716;2023-05-10T07:37:35;11.80;82.80
11229;DHT22;5671;47.936;8.716;2023-05-10T07:40:01;11.80;84.00
11229;DHT22;5671;47.936;8.716;2023-05-10T07:42:29;11.80;83.10
11229;DHT22;5671;47.936;8.716;2023-05-10T07:44:57;11.90;83.40
11229;DHT22;5671;47.936;8.716;2023-05-10T07:47:24;12.00;83.30
11229;DHT22;5671;47.936;8.716;2023-05-10T07:49:51;12.10;81.00
11229;DHT22;5671;47.936;8.716;2023-05-10T07:52:18;12.20;81.00
11229;DHT22;5671;47.936;8.716;2023-05-10T07:54:45;12.30;79.90
11229;DHT22;5671;47.936;8.716;2023-05-10T07:57:11;12.30;76.90
11229;DHT22;5671;47.936;8.716;2023-05-10T07:59:40;12.30;78.00
11229;DHT22;5671;47.936;8.716;2023-05-10T08:02:09;12.50;79.20
11229;DHT22;5671;47.936;8.716;2023-05-10T08:04:35;12.50;78.80
11229;DHT22;5671;47.936;8.716;2023-05-10T08:07:02;12.60;77.80
11229;DHT22;5671;47.936;8.716;2023-05-10T08:09:29;12.60;74.80
11229;DHT22;5671;47.936;8.716;2023-05-10T08:11:56;12.60;76.30
11229;DHT22;5671;47.936;8.716;2023-05-10T08:14:24;12.60;75.80
11229;DHT22;5671;47.936;8.716;2023-05-10T08:16:51;12.50;75.20
11229;DHT22;5671;47.936;8.716;2023-05-10T08:19:19;12.60;75.50
11229;DHT22;5671;47.936;8.716;2023-05-10T08:21:47;12.60;75.20
11229;DHT22;5671;47.936;8.716;2023-05-10T08:24:14;12.60;76.00
11229;DHT22;5671;47.936;8.716;2023-05-10T08:26:41;12.70;77.20
11229;DHT22;5671;47.936;8.716;2023-05-10T08:29:08;12.80;74.90
11229;DHT22;5671;47.936;8.716;2023-05-10T08:31:34;12.80;77.20
11229;DHT22;5671;47.936;8.716;2023-05-10T08:34:01;12.70;74.70
11229;DHT22;5671;47.936;8.716;2023-05-10T08:36:29;12.70;72.20
11229;DHT22;5671;47.936;8.716;2023-05-10T08:38:57;12.60;76.30
11229;DHT22;5671;47.936;8.716;2023-05-10T08:41:25;12.50;74.90
11229;DHT22;5671;47.936;8.716;2023-05-10T08:43:52;12.50;75.80
11229;DHT22;5671;47.936;8.716;2023-05-10T08:46:21;12.40;77.80
11229;DHT22;5671;47.936;8.716;2023-05-10T08:48:50;12.30;77.20
11229;DHT22;5671;47.936;8.716;2023-05-10T08:51:19;12.30;79.90
11229;DHT22;5671;47.936;8.716;2023-05-10T08:53:50;12.20;78.90
11229;DHT22;5671;47.936;8.716;2023-05-10T08:56:17;12.10;78.20
11229;DHT22;5671;47.936;8.716;2023-05-10T08:58:45;12.00;79.80
11229;DHT22;5671;47.936;8.716;2023-05-10T09:01:13;11.90;81.10
11229;DHT22;5671;47.936;8.716;2023-05-10T09:03:41;11.90;81.00
11229;DHT22;5671;47.936;8.716;2023-05-10T09:06:09;11.90;81.80
11229;DHT22;5671;47.936;8.716;2023-05-10T09:08:38;11.80;80.30
11229;DHT22;5671;47.936;8.716;2023-05-10T09:11:07;11.80;81.80
11229;DHT22;5671;47.936;8.716;2023-05-10T09:13:35;11.80;81.70
11229;DHT22;5671;47.936;8.716;2023-05-10T09:16:03;11.70;82.90
11229;DHT22;5671;47.936;8.716;2023-05-10T09:18:30;11.80;82.90
11229;DHT22;5671;47.936;8.716;2023-05-10T09:20:57;11.80;83.70
11229;DHT22;5671;47.936;8.716;2023-05-10T09:23:24;11.80;83.30
11229;DHT22;5671;47.936;8.716;2023-05-10T09:26:03;11.80;83.50
11229;DHT22;5671;47.936;8.716;2023-05-10T09:28:33;11.90;79.60
11229;DHT22;5671;47.936;8.716;2023-05-10T09:31:00;11.90;82.60
11229;DHT22;5671;47.936;8.716;2023-05-10T09:33:27;12.00;81.80
11229;DHT22;5671;47.936;8.716;2023-05-10T09:35:54;12.10;82.90
11229;DHT22;5671;47.936;8.716;2023-05-10T09:38:20;12.10;81.10
11229;DHT22;5671;47.936;8.716;2023-05-10T09:40:51;12.10;79.80
11229;DHT22;5671;47.936;8.716;2023-05-10T09:43:20;12.10;80.10
11229;DHT22;5671;47.936;8.716;2023-05-10T09:45:49;12.20;80.60
11229;DHT22;5671;47.936;8.716;2023-05-10T09:48:16;12.10;76.20
11229;DHT22;5671;47.936;8.716;2023-05-10T09:50:43;12.20;79.40
11229;DHT22;5671;47.936;8.716;2023-05-10T09:53:14;12.20;75.70
11229;DHT22;5671;47.936;8.716;2023-05-10T09:55:44;12.30;80.00
11229;DHT22;5671;47.936;8.716;2023-05-10T09:58:12;12.40;73.10
11229;DHT22;5671;47.936;8.716;2023-05-10T10:00:41;12.60;78.50
11229;DHT22;5671;47.936;8.716;2023-05-10T10:03:14;12.70;73.10
11229;DHT22;5671;47.936;8.716;2023-05-10T10:05:42;12.80;74.60
11229;DHT22;5671;47.936;8.716;2023-05-10T10:08:09;12.90;75.50
11229;DHT22;5671;47.936;8.716;2023-05-10T10:10:36;13.00;72.60
11229;DHT22;5671;47.936;8.716;2023-05-10T10:13:04;13.00;71.50
11229;DHT22;5671;47.936;8.716;2023-05-10T10:15:32;13.00;72.20
11229;DHT22;5671;47.936;8.716;2023-05-10T10:18:00;13.10;71.20
11229;DHT22;5671;47.936;8.716;2023-05-10T10:20:30;13.30;74.00
11229;DHT22;5671;47.936;8.716;2023-05-10T10:22:57;13.40;70.40
11229;DHT22;5671;47.936;8.716;2023-05-10T10:25:25;13.40;72.60
11229;DHT22;5671;47.936;8.716;2023-05-10T10:28:02;13.60;72.10
11229;DHT22;5671;47.936;8.716;2023-05-10T10:30:37;13.60;69.50
11229;DHT22;5671;47.936;8.716;2023-05-10T10:33:24;13.60;66.60
11229;DHT22;5671;47.936;8.716;2023-05-10T10:36:00;13.60;70.00
11229;DHT22;5671;47.936;8.716;2023-05-10T10:38:36;13.60;64.40
11229;DHT22;5671;47.936;8.716;2023-05-10T10:41:09;13.60;67.80
11229;DHT22;5671;47.936;8.716;2023-05-10T10:43:37;13.80;66.40
11229;DHT22;5671;47.936;8.716;2023-05-10T10:46:13;13.90;70.30
11229;DHT22;5671;47.936;8.716;2023-05-10T10:48:41;14.10;66.50
11229;DHT22;5671;47.936;8.716;2023-05-10T10:51:09;14.30;65.90
11229;DHT22;5671;47.936;8.716;2023-05-10T10:53:37;14.40;66.70
11229;DHT22;5671;47.936;8.716;2023-05-10T10:56:08;14.40;63.30
11229;DHT22;5671;47.936;8.716;2023-05-10T10:58:36;14.40;64.10
11229;DHT22;5671;47.936;8.716;2023-05-10T11:01:14;14.40;62.80
11229;DHT22;5671;47.936;8.716;2023-05-10T11:04:16;14.30;60.30
11229;DHT22;5671;47.936;8.716;2023-05-10T11:06:43;14.30;61.80
11229;DHT22;5671;47.936;8.716;2023-05-10T11:09:11;14.40;61.90
11229;DHT22;5671;47.936;8.716;2023-05-10T11:11:49;14.50;60.90
11229;DHT22;5671;47.936;8.716;2023-05-10T11:14:20;14.50;62.60
11229;DHT22;5671;47.936;8.716;2023-05-10T11:16:47;14.60;61.00
11229;DHT22;5671;47.936;8.716;2023-05-10T11:19:15;14.70;58.90
11229;DHT22;5671;47.936;8.716;2023-05-10T11:21:49;14.60;56.90
11229;DHT22;5671;47.936;8.716;2023-05-10T11:24:17;14.60;56.40
11229;DHT22;5671;47.936;8.716;2023-05-10T11:26:45;14.50;58.30
11229;DHT22;5671;47.936;8.716;2023-05-10T11:29:13;14.40;57.80
11229;DHT22;5671;47.936;8.716;2023-05-10T11:31:43;14.50;60.20
11229;DHT22;5671;47.936;8.716;2023-05-10T11:34:12;14.40;59.60
11229;DHT22;5671;47.936;8.716;2023-05-10T11:36:52;14.50;58.00
11229;DHT22;5671;47.936;8.716;2023-05-10T11:39:19;14.60;63.80
11229;DHT22;5671;47.936;8.716;2023-05-10T11:41:48;14.80;58.50
11229;DHT22;5671;47.936;8.716;2023-05-10T11:44:15;15.00;58.00
11229;DHT22;5671;47.936;8.716;2023-05-10T11:46:42;15.20;58.40
11229;DHT22;5671;47.936;8.716;2023-05-10T11:49:08;15.30;56.40
11229;DHT22;5671;47.936;8.716;2023-05-10T11:51:36;15.60;56.10
11229;DHT22;5671;47.936;8.716;2023-05-10T11:54:11;15.70;60.60
11229;DHT22;5671;47.936;8.716;2023-05-10T11:56:39;16.00;62.20
11229;DHT22;5671;47.936;8.716;2023-05-10T11:59:06;16.10;60.60
11229;DHT22;5671;47.936;8.716;2023-05-10T12:01:33;16.40;56.00
11229;DHT22;5671;47.936;8.716;2023-05-10T12:04:00;16.50;57.50
11229;DHT22;5671;47.936;8.716;2023-05-10T12:06:29;16.50;53.30
11229;DHT22;5671;47.936;8.716;2023-05-10T12:08:57;16.60;48.50
11229;DHT22;5671;47.936;8.716;2023-05-10T12:11:26;16.60;49.10
11229;DHT22;5671;47.936;8.716;2023-05-10T12:13:54;16.60;51.00
11229;DHT22;5671;47.936;8.716;2023-05-10T12:16:23;16.80;51.00
11229;DHT22;5671;47.936;8.716;2023-05-10T12:18:51;17.20;51.70
11229;DHT22;5671;47.936;8.716;2023-05-10T12:21:19;17.30;52.10
11229;DHT22;5671;47.936;8.716;2023-05-10T12:23:47;17.50;48.50
11229;DHT22;5671;47.936;8.716;2023-05-10T12:26:14;17.80;51.20
11229;DHT22;5671;47.936;8.716;2023-05-10T12:28:43;18.10;47.50
11229;DHT22;5671;47.936;8.716;2023-05-10T12:31:10;18.30;47.60
11229;DHT22;5671;47.936;8.716;2023-05-10T12:33:38;18.00;47.20
11229;DHT22;5671;47.936;8.716;2023-05-10T12:36:07;17.90;48.00
11229;DHT22;5671;47.936;8.716;2023-05-10T12:38:35;18.00;46.50
11229;DHT22;5671;47.936;8.716;2023-05-10T12:41:04;17.80;46.10
11229;DHT22;5671;47.936;8.716;2023-05-10T12:43:32;17.70;46.20
11229;DHT22;5671;47.936;8.716;2023-05-10T12:46:04;17.30;47.70
11229;DHT22;5671;47.936;8.716;2023-05-10T12:48:31;17.30;49.60
11229;DHT22;5671;47.936;8.716;2023-05-10T12:50:59;17.10;49.00
11229;DHT22;5671;47.936;8.716;2023-05-10T12:53:26;16.90;50.10
11229;DHT22;5671;47.936;8.716;2023-05-10T12:55:53;16.70;47.50
11229;DHT22;5671;47.936;8.716;2023-05-10T12:58:20;16.50;48.80
11229;DHT22;5671;47.936;8.716;2023-05-10T13:00:46;16.20;48.60
11229;DHT22;5671;47.936;8.716;2023-05-10T13:03:15;16.10;49.90
11229;DHT22;5671;47.936;8.716;2023-05-10T13:05:41;16.10;50.80
11229;DHT22;5671;47.936;8.716;2023-05-10T13:08:08;16.20;51.40
11229;DHT22;5671;47.936;8.716;2023-05-10T13:10:35;16.30;51.60
11229;DHT22;5671;47.936;8.716;2023-05-10T13:13:02;16.40;52.50
11229;DHT22;5671;47.936;8.716;2023-05-10T13:15:29;16.60;51.90
11229;DHT22;5671;47.936;8.716;2023-05-10T13:17:56;16.50;50.10
11229;DHT22;5671;47.936;8.716;2023-05-10T13:20:24;16.60;50.60
11229;DHT22;5671;47.936;8.716;2023-05-10T13:22:51;16.50;51.40
11229;DHT22;5671;47.936;8.716;2023-05-10T13:25:18;16.60;49.60
11229;DHT22;5671;47.936;8.716;2023-05-10T13:27:45;16.50;51.50
11229;DHT22;5671;47.936;8.716;2023-05-10T13:30:12;16.40;49.70
11229;DHT22;5671;47.936;8.716;2023-05-10T13:32:50;16.30;50.60
11229;DHT22;5671;47.936;8.716;2023-05-10T13:35:17;16.30;51.00
11229;DHT22;5671;47.936;8.716;2023-05-10T13:37:45;16.20;49.90
11229;DHT22;5671;47.936;8.716;2023-05-10T13:40:12;16.00;53.40
11229;DHT22;5671;47.936;8.716;2023-05-10T13:42:40;16.00;51.00
11229;DHT22;5671;47.936;8.716;2023-05-10T13:45:07;15.90;54.10
11229;DHT22;5671;47.936;8.716;2023-05-10T13:47:35;15.90;52.40
11229;DHT22;5671;47.936;8.716;2023-05-10T13:50:01;15.80;51.70
11229;DHT22;5671;47.936;8.716;2023-05-10T13:52:28;15.80;52.50
11229;DHT22;5671;47.936;8.716;2023-05-10T13:54:57;15.80;52.10
11229;DHT22;5671;47.936;8.716;2023-05-10T13:57:23;15.80;55.50
11229;DHT22;5671;47.936;8.716;2023-05-10T13:59:52;15.70;51.00
11229;DHT22;5671;47.936;8.716;2023-05-10T14:02:19;15.40;50.80
11229;DHT22;5671;47.936;8.716;2023-05-10T14:04:46;15.40;52.60
11229;DHT22;5671;47.936;8.716;2023-05-10T14:07:13;15.30;52.20
11229;DHT22;5671;47.936;8.716;2023-05-10T14:09:40;15.30;55.10
11229;DHT22;5671;47.936;8.716;2023-05-10T14:12:08;15.10;54.10
11229;DHT22;5671;47.936;8.716;2023-05-10T14:14:35;15.00;53.30
11229;DHT22;5671;47.936;8.716;2023-05-10T14:17:02;14.90;54.60
11229;DHT22;5671;47.936;8.716;2023-05-10T14:19:29;14.90;55.10
11229;DHT22;5671;47.936;8.716;2023-05-10T14:21:58;14.80;53.90
11229;DHT22;5671;47.936;8.716;2023-05-10T14:24:24;14.70;55.40
11229;DHT22;5671;47.936;8.716;2023-05-10T14:26:51;14.60;55.60
11229;DHT22;5671;47.936;8.716;2023-05-10T14:29:21;14.40;57.10
11229;DHT22;5671;47.936;8.716;2023-05-10T14:31:47;13.80;68.60
11229;DHT22;5671;47.936;8.716;2023-05-10T14:34:14;13.50;68.10
11229;DHT22;5671;47.936;8.716;2023-05-10T14:36:41;13.40;69.80
11229;DHT22;5671;47.936;8.716;2023-05-10T14:39:08;13.30;69.20
11229;DHT22;5671;47.936;8.716;2023-05-10T14:41:38;13.20;71.50
11229;DHT22;5671;47.936;8.716;2023-05-10T14:44:06;13.10;71.80
11229;DHT22;5671;47.936;8.716;2023-05-10T14:46:34;13.00;72.30
11229;DHT22;5671;47.936;8.716;2023-05-10T14:49:01;13.00;72.30
11229;DHT22;5671;47.936;8.716;2023-05-10T14:51:28;13.10;71.70
11229;DHT22;5671;47.936;8.716;2023-05-10T14:53:55;13.10;70.50
11229;DHT22;5671;47.936;8.716;2023-05-10T14:56:22;13.20;71.80
11229;DHT22;5671;47.936;8.716;2023-05-10T14:58:49;13.30;71.40
11229;DHT22;5671;47.936;8.716;2023-05-10T15:01:16;13.30;70.10
11229;DHT22;5671;47.936;8.716;2023-05-10T15:03:44;13.40;70.40
11229;DHT22;5671;47.936;8.716;2023-05-10T15:06:13;13.50;70.00
11229;DHT22;5671;47.936;8.716;2023-05-10T15:08:40;13.60;68.10
11229;DHT22;5671;47.936;8.716;2023-05-10T15:11:07;13.70;67.70
11229;DHT22;5671;47.936;8.716;2023-05-10T15:13:34;13.80;69.00
11229;DHT22;5671;47.936;8.716;2023-05-10T15:16:01;13.90;68.10
11229;DHT22;5671;47.936;8.716;2023-05-10T15:18:28;14.00;66.50
11229;DHT22;5671;47.936;8.716;2023-05-10T15:20:56;14.10;68.60
11229;DHT22;5671;47.936;8.716;2023-05-10T15:23:23;14.10;63.50
11229;DHT22;5671;47.936;8.716;2023-05-10T15:25:50;14.10;66.20
11229;DHT22;5671;47.936;8.716;2023-05-10T15:28:20;14.20;67.90
11229;DHT22;5671;47.936;8.716;2023-05-10T15:30:47;14.30;67.50
11229;DHT22;5671;47.936;8.716;2023-05-10T15:33:14;14.40;66.90
11229;DHT22;5671;47.936;8.716;2023-05-10T15:35:41;14.40;66.00
11229;DHT22;5671;47.936;8.716;2023-05-10T15:38:09;14.40;66.70
11229;DHT22;5671;47.936;8.716;2023-05-10T15:40:37;14.50;68.30
11229;DHT22;5671;47.936;8.716;2023-05-10T15:43:03;14.50;65.60
11229;DHT22;5671;47.936;8.716;2023-05-10T15:45:31;14.50;64.90
11229;DHT22;5671;47.936;8.716;2023-05-10T15:47:58;14.50;64.00
11229;DHT22;5671;47.936;8.716;2023-05-10T15:50:25;14.50;64.00
11229;DHT22;5671;47.936;8.716;2023-05-10T15:52:52;14.50;59.10